Weather at Bokondini Airport

Public forecast

Using degrees Celsius for public forecast. Weather courtesy of forecast.io.

Closest aviation weather report (METAR) to Bokondini Airport

Closest report is Dortheys Hiyo Eluay International Airport, 128.8 nm (238.6 km) ENE.

2024/05/18 12:30 (retrieved 18 minutes ago)

WAJJ 181230Z VRB01KT 9999 FEW013 26/26 Q1006

Closest aviation forecast (TAF) to Bokondini Airport

Closest forecast is Bandanaira Airport, 527.7 nm (977.3 km) W.

2024/05/18 12:50 (retrieved 0 seconds ago)

TAF WAPC 181100Z 1812/1824 12009KT 8000 SCT020